UIN weather

Quincy Regional Baldwin Field
Quincy, Illinois, United States

Public forecast

Using degrees Fahrenheit for public forecast. Weather courtesy of forecast.io.

Current aviation weather report (METAR) for Quincy Regional Baldwin Field

Retrieved 2020/04/04 09:10 UTC (2 minutes ago):

KUIN 040910Z AUTO 33010KT 10SM OVC010 01/M01 A3016 RMK AO2 T00061011

Aviation forecast (TAF) for Quincy Regional Baldwin Field

Retrieved 2020/04/04 06:22 UTC (3 hours ago):

TAF KUIN 040520Z 0406/0506 33012KT P6SM VCSH OVC007 FM040800 34010KT P6SM OVC012 FM041400 36010KT P6SM BKN035